Terminal Aerodrome Forecast
Issued by NWS Wilmington, OH

Home | Current Version | Previous Version | Text Only | Print | Product List | Glossary On
Versions: 1 2 3 4 5 6 7 8 9 10 11 12 13 14 15 16 17 18 19 20 21 22 23 24 25
180
FTUS41 KILN 180541
TAFCVG
TAF
KCVG 180541Z 1806/1912 19012G20KT 6SM -SHRA OVC080 WS020/20050KT
     FM180900 20014G22KT 6SM -SHRA VCTS OVC035CB WS020/21050KT
     FM181400 20016G26KT P6SM VCSH OVC014
     FM182100 21016G26KT 4SM SHRA BR OVC012
     FM190000 29021G28KT 4SM -SHRA BR OVC015
     FM190200 30021G32KT P6SM OVC015
     FM190600 29017G27KT P6SM OVC025=

USA.gov is the U.S. government's official web portal to all federal, state and local government web resources and services.